createdAt,value
2018-12-12T00:02:41.000Z,15.67
2018-12-12T00:06:05.740Z,16.63
2018-12-12T00:09:30.454Z,23.97
2018-12-12T00:12:55.192Z,22.17
2018-12-12T00:16:19.910Z,19.07
2018-12-12T00:19:44.662Z,23.27
2018-12-12T00:23:09.380Z,19.77
2018-12-12T00:26:34.144Z,17.93
2018-12-12T00:29:58.866Z,21.67
2018-12-12T00:33:23.558Z,15.47
2018-12-12T00:36:48.305Z,19.97
2018-12-12T00:40:13.075Z,17.90
2018-12-12T00:43:37.769Z,19.33
2018-12-12T00:47:02.539Z,15.90
2018-12-12T00:50:27.251Z,19.03
2018-12-12T00:53:51.942Z,16.20
2018-12-12T00:57:16.789Z,17.43
2018-12-12T01:00:41.571Z,20.80
2018-12-12T01:04:06.324Z,21.87
2018-12-12T01:07:31.048Z,21.57
2018-12-12T01:11:00.894Z,19.40
2018-12-12T01:14:25.819Z,15.47
2018-12-12T01:17:50.485Z,19.37
2018-12-12T01:21:15.227Z,16.37
2018-12-12T01:24:39.907Z,16.13
2018-12-12T01:28:04.624Z,22.93
2018-12-12T01:31:29.308Z,18.60
2018-12-12T01:34:53.984Z,21.20
2018-12-12T01:38:18.775Z,28.40
2018-12-12T01:41:43.516Z,22.00
2018-12-12T01:45:08.586Z,21.27
2018-12-12T01:48:33.285Z,22.87
2018-12-12T01:51:58.041Z,23.90
2018-12-12T01:55:22.837Z,22.53
2018-12-12T01:58:47.581Z,20.90
2018-12-12T02:02:12.320Z,23.43
2018-12-12T02:05:37.071Z,23.23
2018-12-12T02:09:01.867Z,28.87
2018-12-12T02:12:26.598Z,19.23
2018-12-12T02:15:51.363Z,21.70
2018-12-12T02:19:16.076Z,21.20
2018-12-12T02:22:40.805Z,20.60
2018-12-12T02:26:05.496Z,20.70
2018-12-12T02:29:30.222Z,25.53
2018-12-12T02:32:54.935Z,21.90
2018-12-12T02:36:19.684Z,18.03
2018-12-12T02:39:44.452Z,20.37
2018-12-12T02:43:09.119Z,20.93
2018-12-12T02:46:33.774Z,18.23
2018-12-12T02:49:58.528Z,20.93
2018-12-12T02:53:23.281Z,21.33
2018-12-12T02:56:47.963Z,21.53
2018-12-12T03:00:12.657Z,23.43
2018-12-12T03:03:37.357Z,22.33
2018-12-12T03:07:02.086Z,25.57
2018-12-12T03:10:26.767Z,23.37
2018-12-12T03:13:51.712Z,20.07
2018-12-12T03:17:16.554Z,28.87
2018-12-12T03:20:41.291Z,22.20
2018-12-12T03:24:06.083Z,22.53
2018-12-12T03:27:30.970Z,25.40
2018-12-12T03:30:55.780Z,22.10
2018-12-12T03:34:20.471Z,20.93
2018-12-12T03:37:46.055Z,22.63
2018-12-12T03:41:10.890Z,23.93
2018-12-12T03:44:35.575Z,28.37
2018-12-12T03:48:00.331Z,23.53
2018-12-12T03:51:25.026Z,23.13
2018-12-12T03:54:49.695Z,21.43
2018-12-12T03:58:14.392Z,21.63
2018-12-12T04:01:39.155Z,24.07
2018-12-12T04:05:04.156Z,25.30
2018-12-12T04:08:28.886Z,34.83
2018-12-12T04:11:53.567Z,26.30
2018-12-12T04:15:18.338Z,22.87
2018-12-12T04:18:43.014Z,22.40
2018-12-12T04:22:07.768Z,22.60
2018-12-12T04:25:32.477Z,24.57
2018-12-12T04:28:57.247Z,22.03
2018-12-12T04:32:21.974Z,24.43
2018-12-12T04:35:46.661Z,23.47
2018-12-12T04:39:11.494Z,23.00
2018-12-12T04:42:36.228Z,24.80
2018-12-12T04:46:00.958Z,25.43
2018-12-12T04:49:25.625Z,25.33
2018-12-12T04:52:50.324Z,27.13
2018-12-12T04:56:15.082Z,26.20
2018-12-12T04:59:39.801Z,24.67
2018-12-12T05:03:04.760Z,23.10
2018-12-12T05:06:29.434Z,22.47
2018-12-12T05:09:54.142Z,21.90
2018-12-12T05:13:18.859Z,21.27
2018-12-12T05:16:43.561Z,28.43
2018-12-12T05:20:08.581Z,20.97
2018-12-12T05:23:33.270Z,22.67
2018-12-12T05:26:57.963Z,24.00
2018-12-12T05:30:22.636Z,21.87
2018-12-12T05:33:47.362Z,22.87
2018-12-12T05:37:12.011Z,25.27
2018-12-12T05:40:36.954Z,25.37
2018-12-12T05:44:01.690Z,27.13
2018-12-12T05:47:26.597Z,28.97
2018-12-12T05:50:51.246Z,25.03
2018-12-12T05:54:15.880Z,27.53
2018-12-12T05:57:40.565Z,28.73
2018-12-12T06:01:05.288Z,27.07
2018-12-12T06:04:30.004Z,28.13
2018-12-12T06:07:54.915Z,24.47
2018-12-12T06:11:19.678Z,28.50
2018-12-12T06:14:44.353Z,25.77
2018-12-12T06:18:09.048Z,31.47
2018-12-12T06:21:33.821Z,25.47
2018-12-12T06:24:59.630Z,27.73
2018-12-12T06:28:24.470Z,26.10
2018-12-12T06:31:49.132Z,27.20
2018-12-12T06:35:13.874Z,28.20
2018-12-12T06:38:38.564Z,27.57
2018-12-12T06:42:03.232Z,28.67
2018-12-12T06:45:27.932Z,30.60
2018-12-12T06:48:52.727Z,32.67
2018-12-12T06:52:17.433Z,30.97
2018-12-12T06:55:42.123Z,33.40
2018-12-12T06:59:06.770Z,36.80
2018-12-12T07:02:31.484Z,32.00
2018-12-12T07:09:31.852Z,33.97
2018-12-12T07:12:56.607Z,36.37
2018-12-12T07:16:21.367Z,36.97
2018-12-12T07:19:46.062Z,33.50
2018-12-12T07:23:10.759Z,35.57
2018-12-12T07:26:35.451Z,32.57
2018-12-12T07:30:00.147Z,38.63
2018-12-12T07:33:24.859Z,37.17
2018-12-12T07:36:49.545Z,37.20
2018-12-12T07:40:14.241Z,32.63
2018-12-12T07:43:38.851Z,40.77
2018-12-12T07:47:03.690Z,42.07
2018-12-12T07:50:28.380Z,42.63
2018-12-12T07:53:53.075Z,42.23
2018-12-12T07:57:17.760Z,39.20
2018-12-12T08:00:42.423Z,38.90
2018-12-12T08:04:07.119Z,44.40
2018-12-12T08:07:31.793Z,44.83
2018-12-12T08:10:56.478Z,45.90
2018-12-12T08:14:21.146Z,46.70
2018-12-12T08:17:45.889Z,43.40
2018-12-12T08:21:10.578Z,43.93
2018-12-12T08:24:35.254Z,41.77
2018-12-12T08:27:59.932Z,42.30
2018-12-12T08:31:24.576Z,39.30
2018-12-12T08:34:49.289Z,44.20
2018-12-12T08:38:13.921Z,47.53
2018-12-12T08:41:38.536Z,46.43
2018-12-12T08:45:03.520Z,46.70
2018-12-12T08:48:28.233Z,41.90
2018-12-12T08:51:52.911Z,46.20
2018-12-12T08:55:18.008Z,46.87
2018-12-12T08:58:42.765Z,40.87
2018-12-12T09:02:07.430Z,42.93
2018-12-12T09:05:32.445Z,42.33
2018-12-12T09:08:57.107Z,42.17
2018-12-12T09:12:21.784Z,45.53
2018-12-12T09:15:46.557Z,51.20
2018-12-12T09:19:11.299Z,43.93
2018-12-12T09:22:36.030Z,51.07
2018-12-12T09:26:00.676Z,42.53
2018-12-12T09:29:25.426Z,41.00
2018-12-12T09:32:50.062Z,45.97
2018-12-12T09:36:14.824Z,38.03
2018-12-12T09:39:40.949Z,39.83
2018-12-12T09:43:06.526Z,42.87
2018-12-12T09:46:31.661Z,35.33
2018-12-12T09:49:56.485Z,37.20
2018-12-12T09:53:21.337Z,43.57
2018-12-12T09:56:46.884Z,38.27
2018-12-12T10:00:11.694Z,33.27
2018-12-12T10:03:36.643Z,34.77
2018-12-12T10:07:01.582Z,33.23
2018-12-12T10:10:26.349Z,54.03
2018-12-12T10:13:51.137Z,29.80
2018-12-12T10:17:16.022Z,36.17
2018-12-12T10:20:40.731Z,27.80
2018-12-12T10:24:05.519Z,73.50
2018-12-12T10:27:30.276Z,29.43
2018-12-12T10:30:55.047Z,24.90
2018-12-12T10:34:19.800Z,25.80
2018-12-12T10:37:44.474Z,27.43
2018-12-12T10:41:09.225Z,24.70
2018-12-12T10:44:33.960Z,25.63
2018-12-12T10:47:58.994Z,24.47
2018-12-12T10:51:23.742Z,29.77
2018-12-12T10:54:48.440Z,25.33
2018-12-12T10:58:13.087Z,25.37
2018-12-12T11:01:43.028Z,22.67
2018-12-12T11:05:08.307Z,29.30
2018-12-12T11:08:33.053Z,24.13
2018-12-12T11:11:57.829Z,21.33
2018-12-12T11:15:23.071Z,23.40
2018-12-12T11:18:47.717Z,23.97
2018-12-12T11:22:12.543Z,22.97
2018-12-12T11:25:37.286Z,20.70
2018-12-12T11:29:02.119Z,21.37
2018-12-12T11:32:26.935Z,25.10
2018-12-12T11:35:52.125Z,21.93
2018-12-12T11:39:17.117Z,22.43
2018-12-12T11:42:43.103Z,20.40
2018-12-12T11:46:07.849Z,20.87
2018-12-12T11:49:32.653Z,19.97
2018-12-12T11:52:57.394Z,18.83
2018-12-12T11:56:22.076Z,21.43
2018-12-12T11:59:46.801Z,23.37
2018-12-12T12:03:11.468Z,20.23
2018-12-12T12:06:36.105Z,22.40
2018-12-12T12:10:00.775Z,23.23
2018-12-12T12:13:25.586Z,19.63
2018-12-12T12:16:50.276Z,23.43
2018-12-12T12:20:14.991Z,22.07
2018-12-12T12:23:39.691Z,24.47
2018-12-12T12:27:04.477Z,24.20
2018-12-12T12:30:29.153Z,23.03
2018-12-12T12:33:54.035Z,29.10
2018-12-12T12:37:18.731Z,26.43
2018-12-12T12:40:43.484Z,20.10
2018-12-12T12:44:08.202Z,25.20
2018-12-12T12:47:32.912Z,26.63
2018-12-12T12:50:57.617Z,23.03
2018-12-12T12:54:22.260Z,24.63
2018-12-12T12:57:46.990Z,29.20
2018-12-12T13:01:11.667Z,23.67
2018-12-12T13:04:36.400Z,27.00
2018-12-12T13:08:01.089Z,22.83
2018-12-12T13:11:25.740Z,26.53
2018-12-12T13:14:50.424Z,27.43
2018-12-12T13:18:15.285Z,31.50
2018-12-12T13:21:40.010Z,29.03
2018-12-12T13:25:04.710Z,28.97
2018-12-12T13:28:31.840Z,27.97
2018-12-12T13:31:56.821Z,29.83
2018-12-12T13:35:21.487Z,25.87
2018-12-12T13:38:46.119Z,26.50
2018-12-12T13:42:10.842Z,29.57
2018-12-12T13:45:35.516Z,27.57
2018-12-12T13:49:00.204Z,23.40
2018-12-12T13:52:24.990Z,22.30
2018-12-12T13:55:49.799Z,16.90
2018-12-12T13:59:14.462Z,20.73
2018-12-12T14:02:39.239Z,22.37
2018-12-12T14:06:04.091Z,21.30
2018-12-12T14:09:28.716Z,21.33
2018-12-12T14:12:53.389Z,24.90
2018-12-12T14:16:18.004Z,27.70
2018-12-12T14:19:42.667Z,25.30
2018-12-12T14:23:07.397Z,31.43
2018-12-12T14:26:32.103Z,25.67
2018-12-12T14:29:56.769Z,26.63
2018-12-12T14:33:21.511Z,25.83
2018-12-12T14:36:46.217Z,27.60
2018-12-12T14:40:10.945Z,27.47
2018-12-12T14:43:35.822Z,32.80
2018-12-12T14:47:00.484Z,29.70
2018-12-12T14:50:25.281Z,29.40
2018-12-12T14:53:49.970Z,29.53
2018-12-12T14:57:14.685Z,29.10
2018-12-12T15:00:39.434Z,27.43
2018-12-12T15:04:04.125Z,33.20
2018-12-12T15:07:28.780Z,33.10
2018-12-12T15:10:53.484Z,34.63
2018-12-12T15:14:18.190Z,31.27
2018-12-12T15:17:42.881Z,33.93
2018-12-12T15:21:07.546Z,35.13
2018-12-12T15:24:32.212Z,40.07
2018-12-12T15:27:56.955Z,45.50
2018-12-12T15:31:21.631Z,38.80
2018-12-12T15:34:46.316Z,38.93
2018-12-12T15:38:10.989Z,35.63
2018-12-12T15:41:36.240Z,43.13
2018-12-12T15:45:00.922Z,42.10
2018-12-12T15:48:25.601Z,35.63
2018-12-12T15:51:50.336Z,40.00
2018-12-12T15:55:15.075Z,37.77
2018-12-12T15:58:39.835Z,37.03
2018-12-12T16:02:04.718Z,36.33
2018-12-12T16:05:29.396Z,39.83
2018-12-12T16:08:54.113Z,39.90
2018-12-12T16:12:18.795Z,36.40
2018-12-12T16:15:43.519Z,48.33
2018-12-12T16:19:08.227Z,45.97
2018-12-12T16:22:32.949Z,45.23
2018-12-12T16:25:57.636Z,44.07
2018-12-12T16:29:22.408Z,41.63
2018-12-12T16:32:47.291Z,48.50
2018-12-12T16:36:12.015Z,43.93
2018-12-12T16:39:36.755Z,43.50
2018-12-12T16:43:01.566Z,37.40
2018-12-12T16:46:26.284Z,35.40
2018-12-12T16:49:51.030Z,33.27
2018-12-12T16:53:16.620Z,35.83
2018-12-12T16:56:41.382Z,35.33
2018-12-12T17:00:08.709Z,33.00
2018-12-12T17:03:33.411Z,36.13
2018-12-12T17:06:58.148Z,26.87
2018-12-12T17:10:22.830Z,27.83
2018-12-12T17:13:47.548Z,28.93
2018-12-12T17:17:12.205Z,33.07
2018-12-12T17:20:36.929Z,27.67
2018-12-12T17:24:01.633Z,28.40
2018-12-12T17:27:26.323Z,32.53
2018-12-12T17:30:51.029Z,31.37
2018-12-12T17:34:15.734Z,25.97
2018-12-12T17:37:40.467Z,28.93
2018-12-12T17:41:05.201Z,27.27
2018-12-12T17:44:29.799Z,33.70
2018-12-12T17:47:54.512Z,29.10
2018-12-12T17:51:19.242Z,29.50
2018-12-12T17:54:43.967Z,35.30
2018-12-12T17:58:08.649Z,30.67
2018-12-12T18:01:33.377Z,28.60
2018-12-12T18:04:58.093Z,28.17
2018-12-12T18:08:22.741Z,28.97
2018-12-12T18:11:47.406Z,27.60
2018-12-12T18:15:12.087Z,32.43
2018-12-12T18:18:36.742Z,30.10
2018-12-12T18:22:01.422Z,28.93
2018-12-12T18:25:26.071Z,27.17
2018-12-12T18:28:50.776Z,30.17
2018-12-12T18:32:15.450Z,32.60
2018-12-12T18:35:40.439Z,29.83
2018-12-12T18:39:07.709Z,31.17
2018-12-12T18:42:32.473Z,31.67
2018-12-12T18:45:57.233Z,31.97
2018-12-12T18:49:21.919Z,28.27
2018-12-12T18:52:46.608Z,31.07
2018-12-12T18:56:11.410Z,33.67
2018-12-12T18:59:36.110Z,32.33
2018-12-12T19:03:01.461Z,33.07
2018-12-12T19:06:26.143Z,34.47
2018-12-12T19:09:50.868Z,35.20
2018-12-12T19:13:16.457Z,32.13
2018-12-12T19:16:41.281Z,32.10
2018-12-12T19:20:07.701Z,32.70
2018-12-12T19:23:32.551Z,34.93
2018-12-12T19:26:57.263Z,39.23
2018-12-12T19:30:21.944Z,46.80
2018-12-12T19:33:46.640Z,38.10
2018-12-12T19:37:11.384Z,36.23
2018-12-12T19:40:36.103Z,30.03
2018-12-12T19:44:00.784Z,29.23
2018-12-12T19:47:25.521Z,32.23
2018-12-12T19:50:50.372Z,38.63
2018-12-12T19:54:15.097Z,29.37
2018-12-12T19:57:39.905Z,34.63
2018-12-12T20:01:04.634Z,32.90
2018-12-12T20:04:29.375Z,32.20
2018-12-12T20:07:54.072Z,31.80
2018-12-12T20:11:18.773Z,37.97
2018-12-12T20:14:43.447Z,32.10
2018-12-12T20:18:08.138Z,32.07
2018-12-12T20:21:32.910Z,31.70
2018-12-12T20:24:57.609Z,35.33
2018-12-12T20:28:22.394Z,45.93
2018-12-12T20:31:47.113Z,30.13
2018-12-12T20:35:11.840Z,35.50
2018-12-12T20:38:36.565Z,35.87
2018-12-12T20:42:01.282Z,40.30
2018-12-12T20:45:26.073Z,37.63
2018-12-12T20:48:51.769Z,37.70
2018-12-12T20:52:16.469Z,41.17
2018-12-12T20:55:41.317Z,43.73
2018-12-12T20:59:06.353Z,34.03
2018-12-12T21:02:31.039Z,32.20
2018-12-12T21:05:56.290Z,35.80
2018-12-12T21:09:21.268Z,31.63
2018-12-12T21:12:46.576Z,34.77
2018-12-12T21:16:12.210Z,33.60
2018-12-12T21:19:37.560Z,32.00
2018-12-12T21:23:02.570Z,30.37
2018-12-12T21:26:27.680Z,30.93
2018-12-12T21:29:52.546Z,32.53
2018-12-12T21:33:17.538Z,35.87
2018-12-12T21:36:42.343Z,30.63
2018-12-12T21:40:07.281Z,28.33
2018-12-12T21:43:32.112Z,28.47
2018-12-12T21:46:56.823Z,27.77
2018-12-12T21:50:21.636Z,24.70
2018-12-12T21:53:47.978Z,29.13
2018-12-12T21:57:13.113Z,30.10
2018-12-12T22:00:37.886Z,31.00
2018-12-12T22:08:06.491Z,29.23
2018-12-12T22:15:13.336Z,27.23
2018-12-12T22:18:39.832Z,29.37
2018-12-12T22:22:16.142Z,23.00
2018-12-12T22:25:40.912Z,28.10
2018-12-12T22:32:58.853Z,27.27
2018-12-12T22:36:23.840Z,25.30
2018-12-12T22:39:48.572Z,27.27
2018-12-12T22:43:13.432Z,28.03
2018-12-12T22:46:38.313Z,23.77
2018-12-12T22:50:03.178Z,22.30
2018-12-12T22:53:27.895Z,27.93
2018-12-12T22:56:52.596Z,27.97
2018-12-12T23:00:22.536Z,22.37
2018-12-12T23:03:47.227Z,23.67
2018-12-12T23:07:11.919Z,23.37
2018-12-12T23:10:36.637Z,21.97
2018-12-12T23:14:01.282Z,23.53
2018-12-12T23:17:25.998Z,27.53
2018-12-12T23:20:50.653Z,24.40
2018-12-12T23:24:15.379Z,22.70
2018-12-12T23:27:40.072Z,23.13
2018-12-12T23:31:04.770Z,25.37
2018-12-12T23:34:29.517Z,27.83
2018-12-12T23:37:54.273Z,25.17
2018-12-12T23:41:19.037Z,23.63
2018-12-12T23:44:43.789Z,22.80
2018-12-12T23:48:08.448Z,24.10
2018-12-12T23:51:34.786Z,24.57
2018-12-12T23:54:59.431Z,22.53
2018-12-12T23:58:24.059Z,25.83
